Time;durP1;ratioP1;P1;durP2;ratioP2;P2;SDS_P1;SDS_P2;PMS_P1;PMS_P2;Temp;Humidity;BMP_temperature;BMP_pressure;BME280_temperature;BME280_humidity;BME280_pressure;Samples;Min_cycle;Max_cycle;Signal;HPM_P1;HPM_P2
2021/08/13 00:00:23;;;;;;;9.02;2.70;;;;;;;;;;5074563;28;20031;-70
2021/08/13 00:02:49;;;;;;;8.25;2.70;;;;;;;;;;5073690;28;20048;-71
2021/08/13 00:05:15;;;;;;;8.20;2.45;;;;;;;;;;5072743;28;20031;-70
2021/08/13 00:07:41;;;;;;;10.07;3.00;;;;;;;;;;5073134;28;20024;-71
2021/08/13 00:10:08;;;;;;;12.05;2.88;;;;;;;;;;5074871;28;20029;-71
2021/08/13 00:12:34;;;;;;;6.32;3.13;;;;;;;;;;5073917;28;20032;-71
2021/08/13 00:15:00;;;;;;;4.70;2.65;;;;;;;;;;5072921;28;20170;-72
2021/08/13 00:17:29;;;;;;;9.05;3.08;;;;;;;;;;5077114;28;20028;-71
2021/08/13 00:19:55;;;;;;;9.52;3.75;;;;;;;;;;5077921;28;20070;-72
2021/08/13 00:22:24;;;;;;;8.52;2.58;;;;;;;;;;5077570;28;20032;-71
2021/08/13 00:24:51;;;;;;;13.55;2.90;;;;;;;;;;5076850;28;20055;-71
2021/08/13 00:27:17;;;;;;;10.98;3.38;;;;;;;;;;5075686;28;20467;-71
2021/08/13 00:29:44;;;;;;;8.20;3.28;;;;;;;;;;5074888;28;20033;-70
2021/08/13 00:32:10;;;;;;;10.02;3.15;;;;;;;;;;5077385;28;20032;-71
2021/08/13 00:34:38;;;;;;;9.15;2.60;;;;;;;;;;5076275;28;20056;-73
2021/08/13 00:37:04;;;;;;;11.70;3.05;;;;;;;;;;5076021;28;20076;-72
2021/08/13 00:39:30;;;;;;;7.95;3.17;;;;;;;;;;5075918;28;20012;-71
2021/08/13 00:41:57;;;;;;;7.43;3.72;;;;;;;;;;5076311;28;20077;-71
2021/08/13 00:44:24;;;;;;;11.20;3.13;;;;;;;;;;5077004;28;20100;-70
2021/08/13 00:46:50;;;;;;;9.07;3.45;;;;;;;;;;5076542;28;20021;-71
2021/08/13 00:49:16;;;;;;;8.65;3.13;;;;;;;;;;5075995;28;20104;-72
2021/08/13 00:51:43;;;;;;;11.40;3.33;;;;;;;;;;5076122;28;20021;-73
2021/08/13 00:54:12;;;;;;;9.65;5.05;;;;;;;;;;5076821;28;20388;-72
2021/08/13 00:56:38;;;;;;;9.63;4.43;;;;;;;;;;5076054;28;20052;-71
2021/08/13 00:59:05;;;;;;;12.05;2.65;;;;;;;;;;5076080;28;20114;-71
2021/08/13 01:01:31;;;;;;;9.05;3.45;;;;;;;;;;5075685;28;20538;-71
2021/08/13 01:04:03;;;;;;;13.40;4.38;;;;;;;;;;5076426;28;20071;-71
2021/08/13 01:06:29;;;;;;;11.05;3.67;;;;;;;;;;5076813;28;20123;-70
2021/08/13 01:08:55;;;;;;;12.27;3.15;;;;;;;;;;5077541;28;20031;-71
2021/08/13 01:11:36;;;;;;;11.63;3.35;;;;;;;;;;5075159;28;20032;-70
2021/08/13 01:14:21;;;;;;;6.53;2.80;;;;;;;;;;5075806;28;20028;-70
2021/08/13 01:16:47;;;;;;;;;;;;;;;;;;5077244;28;20016;-71
2021/08/13 01:19:19;;;;;;;10.85;3.40;;;;;;;;;;5075477;28;20385;-72
2021/08/13 01:21:48;;;;;;;7.60;2.75;;;;;;;;;;5074850;28;20024;-71
2021/08/13 01:24:18;;;;;;;15.43;3.60;;;;;;;;;;5075167;28;20518;-72
2021/08/13 01:26:47;;;;;;;13.43;3.72;;;;;;;;;;5075332;28;20020;-72
2021/08/13 01:29:21;;;;;;;6.75;3.05;;;;;;;;;;5076049;28;20020;-71
2021/08/13 01:32:05;;;;;;;12.25;3.08;;;;;;;;;;5074618;28;20024;-71
2021/08/13 01:34:32;;;;;;;12.10;3.42;;;;;;;;;;5075588;28;20467;-71
2021/08/13 01:36:58;;;;;;;10.02;3.78;;;;;;;;;;5074326;28;20121;-71
2021/08/13 01:39:28;;;;;;;11.48;3.22;;;;;;;;;;5075804;28;20368;-72
2021/08/13 01:41:54;;;;;;;12.20;3.97;;;;;;;;;;5075759;28;20024;-71
2021/08/13 01:44:20;;;;;;;9.52;2.97;;;;;;;;;;5075361;28;20386;-70
2021/08/13 01:46:47;;;;;;;7.15;2.65;;;;;;;;;;5075733;28;20361;-71
2021/08/13 01:49:15;;;;;;;7.53;3.20;;;;;;;;;;5077475;28;20021;-71
2021/08/13 01:51:42;;;;;;;13.38;3.78;;;;;;;;;;5075592;28;20356;-71
2021/08/13 01:54:09;;;;;;;8.52;3.80;;;;;;;;;;5075141;28;20545;-72
2021/08/13 01:56:35;;;;;;;10.00;2.92;;;;;;;;;;5075243;28;20057;-71
2021/08/13 01:59:02;;;;;;;9.20;3.00;;;;;;;;;;5077018;28;20020;-71
2021/08/13 02:01:29;;;;;;;11.05;3.42;;;;;;;;;;5074786;28;20096;-70
2021/08/13 02:03:56;;;;;;;6.88;2.78;;;;;;;;;;5074871;28;20520;-71
2021/08/13 02:06:23;;;;;;;9.60;2.97;;;;;;;;;;5074835;28;20033;-71
2021/08/13 02:08:49;;;;;;;10.82;3.25;;;;;;;;;;5072920;28;20029;-71
2021/08/13 02:11:16;;;;;;;9.07;3.95;;;;;;;;;;5076900;28;20030;-70
2021/08/13 02:13:43;;;;;;;10.55;3.63;;;;;;;;;;5075647;28;20047;-69
2021/08/13 02:16:10;;;;;;;8.82;3.40;;;;;;;;;;5073494;28;20105;-71
2021/08/13 02:18:38;;;;;;;11.45;3.47;;;;;;;;;;5074487;28;20017;-70
2021/08/13 02:21:07;;;;;;;8.82;3.58;;;;;;;;;;5074943;28;20036;-70
2021/08/13 02:23:34;;;;;;;12.57;2.97;;;;;;;;;;5075896;28;20032;-70
2021/08/13 02:26:00;;;;;;;10.27;3.55;;;;;;;;;;5075872;28;20025;-71
2021/08/13 02:28:26;;;;;;;12.38;2.85;;;;;;;;;;5075331;28;20032;-68
2021/08/13 02:30:52;;;;;;;6.50;3.22;;;;;;;;;;5072834;28;20031;-70
2021/08/13 02:33:19;;;;;;;19.58;3.75;;;;;;;;;;5075257;28;20021;-74
2021/08/13 02:35:46;;;;;;;8.30;4.13;;;;;;;;;;5076138;28;20024;-72
2021/08/13 02:38:17;;;;;;;13.68;3.35;;;;;;;;;;5075410;28;20047;-71
2021/08/13 02:40:53;;;;;;;10.35;2.75;;;;;;;;;;5074615;28;20035;-71
2021/08/13 02:43:34;;;;;;;15.43;4.10;;;;;;;;;;5074152;28;20482;-72
2021/08/13 02:46:04;;;;;;;12.13;3.28;;;;;;;;;;5075250;28;20028;-71
2021/08/13 02:48:32;;;;;;;9.43;2.90;;;;;;;;;;5075280;28;20426;-71
2021/08/13 02:50:59;;;;;;;13.65;4.55;;;;;;;;;;5074970;28;20383;-71
2021/08/13 02:53:26;;;;;;;13.98;4.65;;;;;;;;;;5073707;28;20020;-70
2021/08/13 02:55:55;;;;;;;10.52;3.10;;;;;;;;;;5073918;28;20490;-71
2021/08/13 02:58:24;;;;;;;10.70;3.72;;;;;;;;;;5075166;28;20162;-71
2021/08/13 03:00:54;;;;;;;17.25;3.85;;;;;;;;;;5075553;28;20021;-68
2021/08/13 03:03:21;;;;;;;11.68;3.80;;;;;;;;;;5074764;28;20056;-71
2021/08/13 03:05:51;;;;;;;16.55;3.38;;;;;;;;;;5074391;28;20032;-70
2021/08/13 03:08:18;;;;;;;12.15;3.25;;;;;;;;;;5074464;28;20394;-70
2021/08/13 03:10:45;;;;;;;12.98;3.25;;;;;;;;;;5073341;28;20024;-74
2021/08/13 03:13:11;;;;;;;6.30;3.20;;;;;;;;;;5074459;28;20051;-70
2021/08/13 03:15:37;;;;;;;9.98;2.85;;;;;;;;;;5073091;28;20021;-70
2021/08/13 03:18:04;;;;;;;10.50;3.30;;;;;;;;;;5074248;28;20108;-70
2021/08/13 03:20:30;;;;;;;8.82;3.50;;;;;;;;;;5075650;28;20017;-68
2021/08/13 03:22:56;;;;;;;14.45;3.97;;;;;;;;;;5073675;28;20021;-72
2021/08/13 03:25:23;;;;;;;13.40;3.22;;;;;;;;;;5072841;28;20031;-71
2021/08/13 03:27:50;;;;;;;9.10;2.85;;;;;;;;;;5073035;28;20028;-71
2021/08/13 03:30:16;;;;;;;13.80;3.75;;;;;;;;;;5073433;28;20025;-73
2021/08/13 03:32:42;;;;;;;12.10;4.30;;;;;;;;;;5072916;28;20028;-69
2021/08/13 03:35:09;;;;;;;11.07;3.00;;;;;;;;;;5073054;28;20032;-72
2021/08/13 03:37:35;;;;;;;9.82;3.30;;;;;;;;;;5071829;28;20044;-70
2021/08/13 03:40:03;;;;;;;17.95;3.58;;;;;;;;;;5072744;28;20020;-71
2021/08/13 03:42:29;;;;;;;8.43;2.80;;;;;;;;;;5073531;28;20025;-70
2021/08/13 03:44:55;;;;;;;10.68;3.47;;;;;;;;;;5075099;28;20021;-71
2021/08/13 03:47:21;;;;;;;14.75;3.72;;;;;;;;;;5072299;28;20021;-71
2021/08/13 03:49:47;;;;;;;13.80;3.22;;;;;;;;;;5072634;28;20054;-71
2021/08/13 03:52:14;;;;;;;9.30;2.70;;;;;;;;;;5077428;28;20545;-72
2021/08/13 03:54:40;;;;;;;10.90;3.05;;;;;;;;;;5079363;28;20375;-71
2021/08/13 03:57:06;;;;;;;13.98;3.97;;;;;;;;;;5076162;28;20032;-69
2021/08/13 03:59:32;;;;;;;9.68;3.17;;;;;;;;;;5076433;28;20017;-70
2021/08/13 04:01:58;;;;;;;13.45;3.03;;;;;;;;;;5076423;28;20020;-72
2021/08/13 04:04:24;;;;;;;6.72;2.85;;;;;;;;;;5076086;28;20033;-72
2021/08/13 04:06:50;;;;;;;10.20;3.80;;;;;;;;;;5076892;28;20581;-71
2021/08/13 04:09:16;;;;;;;11.50;2.60;;;;;;;;;;5076159;28;20478;-71
2021/08/13 04:11:42;;;;;;;16.73;3.13;;;;;;;;;;5076264;28;20059;-71
2021/08/13 04:14:09;;;;;;;11.57;3.40;;;;;;;;;;5081704;28;20024;-72
2021/08/13 04:16:35;;;;;;;10.52;3.45;;;;;;;;;;5076363;28;20055;-71
2021/08/13 04:19:01;;;;;;;9.95;3.40;;;;;;;;;;5076729;28;20108;-71
2021/08/13 04:21:27;;;;;;;14.55;3.33;;;;;;;;;;5076265;28;20021;-72
2021/08/13 04:23:53;;;;;;;9.63;3.40;;;;;;;;;;5076900;28;20032;-71
2021/08/13 04:26:19;;;;;;;14.90;2.95;;;;;;;;;;5076227;28;20029;-71
2021/08/13 04:28:45;;;;;;;12.40;3.28;;;;;;;;;;5076559;28;20483;-72
2021/08/13 04:31:11;;;;;;;7.32;2.67;;;;;;;;;;5076666;28;20031;-71
2021/08/13 04:33:37;;;;;;;9.68;3.00;;;;;;;;;;5078670;28;20387;-71
2021/08/13 04:36:03;;;;;;;11.88;2.90;;;;;;;;;;5075763;28;20082;-71
2021/08/13 04:38:29;;;;;;;9.40;3.13;;;;;;;;;;5075539;28;20016;-71
2021/08/13 04:40:55;;;;;;;10.52;3.10;;;;;;;;;;5074490;28;20390;-71
2021/08/13 04:43:22;;;;;;;15.57;3.42;;;;;;;;;;5076252;28;20029;-70
2021/08/13 04:45:48;;;;;;;6.22;2.50;;;;;;;;;;5075491;28;20100;-71
2021/08/13 04:48:14;;;;;;;7.90;3.13;;;;;;;;;;5075766;28;20498;-71
2021/08/13 04:50:40;;;;;;;5.70;2.70;;;;;;;;;;5075399;28;20052;-70
2021/08/13 04:53:06;;;;;;;14.13;3.42;;;;;;;;;;5075327;28;20546;-70
2021/08/13 04:55:32;;;;;;;8.77;2.95;;;;;;;;;;5075478;28;20024;-70
2021/08/13 04:57:58;;;;;;;12.93;3.70;;;;;;;;;;5074100;28;20020;-71
2021/08/13 05:00:24;;;;;;;17.65;3.97;;;;;;;;;;5075037;28;20020;-73
2021/08/13 05:02:50;;;;;;;12.85;4.03;;;;;;;;;;5074536;28;20611;-70
2021/08/13 05:05:16;;;;;;;10.10;2.72;;;;;;;;;;5075127;28;20028;-71
2021/08/13 05:07:42;;;;;;;10.40;3.08;;;;;;;;;;5074950;28;20021;-72
2021/08/13 05:10:12;;;;;;;8.20;2.75;;;;;;;;;;5074993;28;20028;-71
2021/08/13 05:12:39;;;;;;;6.97;2.47;;;;;;;;;;5075606;28;20020;-72
2021/08/13 05:15:06;;;;;;;10.60;2.97;;;;;;;;;;5075152;28;20032;-70
2021/08/13 05:17:32;;;;;;;8.25;3.03;;;;;;;;;;5074942;28;20078;-71
2021/08/13 05:19:58;;;;;;;11.45;2.60;;;;;;;;;;5075152;28;20107;-71
2021/08/13 05:22:24;;;;;;;5.60;2.55;;;;;;;;;;5074667;28;20034;-71
2021/08/13 05:24:50;;;;;;;8.98;3.08;;;;;;;;;;5074648;28;20025;-71
2021/08/13 05:27:16;;;;;;;11.35;2.92;;;;;;;;;;5074388;28;20025;-70
2021/08/13 05:29:42;;;;;;;6.97;2.40;;;;;;;;;;5074579;28;20032;-71
2021/08/13 05:32:08;;;;;;;8.32;2.60;;;;;;;;;;5074696;28;20067;-72
2021/08/13 05:34:34;;;;;;;10.55;4.90;;;;;;;;;;5077282;28;20112;-71
2021/08/13 05:37:00;;;;;;;9.18;2.88;;;;;;;;;;5074319;28;20053;-72
2021/08/13 05:39:27;;;;;;;8.43;3.45;;;;;;;;;;5074305;28;20028;-71
2021/08/13 05:41:53;;;;;;;12.27;2.95;;;;;;;;;;5073188;28;20048;-72
2021/08/13 05:44:19;;;;;;;9.35;3.22;;;;;;;;;;5074605;28;20055;-71
2021/08/13 05:46:45;;;;;;;8.05;2.78;;;;;;;;;;5074345;28;20025;-71
2021/08/13 05:49:11;;;;;;;11.85;3.78;;;;;;;;;;5074326;28;20020;-70
2021/08/13 05:51:37;;;;;;;8.02;2.40;;;;;;;;;;5074306;28;20134;-71
2021/08/13 05:54:03;;;;;;;6.43;2.85;;;;;;;;;;5074058;28;20080;-71
2021/08/13 05:56:29;;;;;;;11.65;3.22;;;;;;;;;;5074339;28;20077;-72
2021/08/13 05:59:00;;;;;;;10.95;3.00;;;;;;;;;;5073737;28;20017;-70
2021/08/13 06:01:27;;;;;;;10.13;2.85;;;;;;;;;;5075221;28;20029;-71
2021/08/13 06:03:53;;;;;;;10.07;3.00;;;;;;;;;;5074074;28;20044;-70
2021/08/13 06:06:19;;;;;;;11.13;3.25;;;;;;;;;;5074293;28;20050;-70
2021/08/13 06:08:47;;;;;;;16.02;3.67;;;;;;;;;;5074446;28;20426;-70
2021/08/13 06:11:13;;;;;;;6.93;3.35;;;;;;;;;;5074493;28;20029;-71
2021/08/13 06:13:39;;;;;;;9.45;2.80;;;;;;;;;;5074117;28;20024;-71
2021/08/13 06:16:05;;;;;;;8.43;2.75;;;;;;;;;;5074775;28;20044;-70
2021/08/13 06:18:32;;;;;;;10.77;2.90;;;;;;;;;;5074279;28;20021;-71
2021/08/13 06:20:58;;;;;;;10.93;3.50;;;;;;;;;;5074176;28;20021;-72
2021/08/13 06:23:24;;;;;;;8.20;2.65;;;;;;;;;;5074462;28;20391;-71
2021/08/13 06:25:50;;;;;;;15.32;3.67;;;;;;;;;;5074644;28;20024;-70
2021/08/13 06:28:16;;;;;;;12.45;4.00;;;;;;;;;;5075086;28;20028;-71
2021/08/13 06:30:42;;;;;;;8.82;2.72;;;;;;;;;;5074412;28;20506;-72
2021/08/13 06:33:08;;;;;;;8.02;2.50;;;;;;;;;;5074606;28;20029;-72
2021/08/13 06:35:34;;;;;;;11.90;3.25;;;;;;;;;;5073918;28;20545;-70
2021/08/13 06:38:00;;;;;;;11.68;2.28;;;;;;;;;;5074162;28;20414;-71
2021/08/13 06:40:26;;;;;;;8.25;2.55;;;;;;;;;;5074051;28;20027;-72
2021/08/13 06:42:53;;;;;;;11.88;3.03;;;;;;;;;;5077590;28;20021;-72
2021/08/13 06:45:21;;;;;;;12.73;3.70;;;;;;;;;;5072831;28;20059;-71
2021/08/13 06:47:47;;;;;;;6.30;3.20;;;;;;;;;;5073464;28;20391;-70
2021/08/13 06:50:14;;;;;;;11.95;3.83;;;;;;;;;;5073653;28;20482;-71
2021/08/13 06:52:40;;;;;;;8.88;2.60;;;;;;;;;;5074176;28;20032;-69
2021/08/13 06:55:06;;;;;;;6.78;2.80;;;;;;;;;;5074556;28;20021;-70
2021/08/13 06:57:33;;;;;;;9.18;3.38;;;;;;;;;;5074502;28;20021;-71
2021/08/13 07:00:06;;;;;;;8.88;3.08;;;;;;;;;;5074322;28;20017;-70
2021/08/13 07:02:32;;;;;;;8.20;2.85;;;;;;;;;;5075074;28;20049;-71
2021/08/13 07:04:58;;;;;;;10.50;3.25;;;;;;;;;;5077273;28;20029;-72
2021/08/13 07:07:24;;;;;;;10.32;3.65;;;;;;;;;;5074986;28;20043;-71
2021/08/13 07:09:50;;;;;;;12.63;3.83;;;;;;;;;;5075307;28;20020;-72
2021/08/13 07:12:18;;;;;;;10.90;3.25;;;;;;;;;;5074716;28;20024;-71
2021/08/13 07:14:44;;;;;;;8.07;2.95;;;;;;;;;;5074986;28;20033;-73
2021/08/13 07:17:10;;;;;;;12.73;4.13;;;;;;;;;;5075783;28;20017;-70
2021/08/13 07:19:37;;;;;;;8.57;2.67;;;;;;;;;;5078642;28;20043;-71
2021/08/13 07:22:03;;;;;;;14.50;4.25;;;;;;;;;;5078216;28;20476;-71
2021/08/13 07:24:30;;;;;;;11.70;3.40;;;;;;;;;;5076901;28;20479;-72
2021/08/13 07:26:56;;;;;;;9.38;2.70;;;;;;;;;;5081658;28;20021;-71
2021/08/13 07:29:23;;;;;;;15.52;3.65;;;;;;;;;;5082997;28;20021;-72
2021/08/13 07:31:50;;;;;;;13.18;3.30;;;;;;;;;;5080015;28;20025;-69
2021/08/13 07:34:16;;;;;;;9.35;2.88;;;;;;;;;;5085736;28;20490;-69
2021/08/13 07:36:42;;;;;;;7.78;2.88;;;;;;;;;;5078715;28;20017;-70
2021/08/13 07:39:08;;;;;;;8.98;2.72;;;;;;;;;;5078774;28;20056;-71
2021/08/13 07:41:34;;;;;;;7.28;3.03;;;;;;;;;;5077870;28;20025;-70
2021/08/13 07:44:00;;;;;;;13.77;3.58;;;;;;;;;;5078922;28;20020;-71
2021/08/13 07:46:26;;;;;;;9.70;3.10;;;;;;;;;;5077972;28;20431;-72
2021/08/13 07:48:52;;;;;;;8.88;2.95;;;;;;;;;;5078130;28;20020;-71
2021/08/13 07:51:18;;;;;;;7.80;2.53;;;;;;;;;;5077306;28;20549;-70
2021/08/13 07:53:44;;;;;;;10.18;3.25;;;;;;;;;;5077924;28;20032;-73
2021/08/13 07:56:10;;;;;;;16.00;2.85;;;;;;;;;;5077835;28;20023;-71
2021/08/13 07:58:37;;;;;;;11.52;2.95;;;;;;;;;;5077298;28;20471;-71
2021/08/13 08:01:03;;;;;;;12.57;3.00;;;;;;;;;;5077548;28;20043;-71
2021/08/13 08:03:29;;;;;;;6.75;2.42;;;;;;;;;;5077329;28;20098;-71
2021/08/13 08:05:55;;;;;;;8.48;2.88;;;;;;;;;;5077875;28;20032;-70
2021/08/13 08:08:21;;;;;;;7.93;3.47;;;;;;;;;;5076142;28;20024;-71
2021/08/13 08:10:47;;;;;;;10.55;2.55;;;;;;;;;;5076926;28;20103;-71
2021/08/13 08:13:17;;;;;;;8.68;2.60;;;;;;;;;;5081618;28;20055;-68
2021/08/13 08:15:45;;;;;;;7.55;2.42;;;;;;;;;;5076369;28;20021;-72
2021/08/13 08:18:11;;;;;;;11.32;3.25;;;;;;;;;;5079031;28;20040;-71
2021/08/13 08:20:38;;;;;;;8.82;2.67;;;;;;;;;;5076981;28;20028;-70
2021/08/13 08:23:04;;;;;;;12.48;3.20;;;;;;;;;;5078056;28;20060;-70
2021/08/13 08:25:31;;;;;;;9.35;2.95;;;;;;;;;;5078067;28;20025;-71
2021/08/13 08:27:57;;;;;;;5.00;2.63;;;;;;;;;;5077271;28;20028;-71
2021/08/13 08:30:23;;;;;;;8.30;2.90;;;;;;;;;;5076678;28;20031;-70
2021/08/13 08:32:49;;;;;;;7.07;2.75;;;;;;;;;;5076795;28;20029;-70
2021/08/13 08:35:18;;;;;;;10.98;2.90;;;;;;;;;;5076994;28;20029;-71
2021/08/13 08:37:50;;;;;;;8.20;2.83;;;;;;;;;;5076182;28;20503;-71
2021/08/13 08:40:22;;;;;;;8.23;2.80;;;;;;;;;;5076375;28;20099;-71
2021/08/13 08:42:48;;;;;;;7.72;2.38;;;;;;;;;;5076449;28;20039;-71
2021/08/13 08:45:15;;;;;;;6.45;2.30;;;;;;;;;;5076606;28;20039;-71
2021/08/13 08:47:44;;;;;;;7.65;2.50;;;;;;;;;;5076734;28;20482;-68
2021/08/13 08:50:10;;;;;;;6.38;2.38;;;;;;;;;;5075407;28;20021;-71
2021/08/13 08:52:37;;;;;;;6.05;2.53;;;;;;;;;;5075338;28;20101;-71
2021/08/13 08:55:04;;;;;;;7.40;2.03;;;;;;;;;;5075290;28;20021;-71
2021/08/13 08:57:33;;;;;;;5.72;2.75;;;;;;;;;;5076372;28;20029;-70
2021/08/13 09:00:00;;;;;;;9.82;2.80;;;;;;;;;;5076992;28;20020;-72
2021/08/13 09:02:26;;;;;;;7.65;3.45;;;;;;;;;;5075856;28;20102;-71
2021/08/13 09:04:52;;;;;;;8.88;2.67;;;;;;;;;;5075867;28;20028;-71
2021/08/13 09:07:18;;;;;;;5.95;2.50;;;;;;;;;;5076652;28;20021;-71
2021/08/13 09:09:44;;;;;;;9.65;3.28;;;;;;;;;;5076872;28;20116;-72
2021/08/13 09:12:11;;;;;;;13.82;2.78;;;;;;;;;;5076344;28;20025;-71
2021/08/13 09:14:41;;;;;;;8.32;2.50;;;;;;;;;;5075908;28;20020;-69
2021/08/13 09:17:07;;;;;;;5.97;2.92;;;;;;;;;;5076534;28;20018;-71
2021/08/13 09:19:48;;;;;;;9.13;3.22;;;;;;;;;;5077257;28;20053;-70
2021/08/13 09:22:15;;;;;;;8.60;2.80;;;;;;;;;;5076034;28;20016;-70
2021/08/13 09:24:42;;;;;;;7.38;2.30;;;;;;;;;;5075878;28;20020;-71
2021/08/13 09:27:17;;;;;;;6.82;2.65;;;;;;;;;;5074343;28;20106;-72
2021/08/13 09:29:46;;;;;;;;;;;;;;;;;;5076697;28;20021;-71
2021/08/13 09:32:25;;;;;;;8.98;2.67;;;;;;;;;;5076481;28;19930;-71
2021/08/13 09:34:51;;;;;;;6.38;2.53;;;;;;;;;;5076176;28;20024;-71
2021/08/13 09:37:17;;;;;;;6.72;2.80;;;;;;;;;;5075540;28;20103;-71
2021/08/13 09:39:44;;;;;;;8.05;2.50;;;;;;;;;;5076585;28;20068;-71
2021/08/13 09:42:10;;;;;;;6.30;2.78;;;;;;;;;;5078291;28;20025;-70
2021/08/13 09:44:38;;;;;;;7.80;2.60;;;;;;;;;;5075235;28;20099;-71
2021/08/13 09:47:09;;;;;;;10.15;3.38;;;;;;;;;;5076227;28;20072;-72
2021/08/13 09:49:42;;;;;;;6.53;2.63;;;;;;;;;;5074854;28;20363;-70
2021/08/13 09:52:12;;;;;;;11.75;3.08;;;;;;;;;;5077258;28;20025;-71
2021/08/13 09:54:38;;;;;;;8.18;2.92;;;;;;;;;;5077327;28;20024;-70
2021/08/13 09:57:08;;;;;;;6.82;2.60;;;;;;;;;;5076670;28;20028;-74
2021/08/13 09:59:34;;;;;;;5.32;2.55;;;;;;;;;;5074879;28;20052;-72
2021/08/13 10:02:11;;;;;;;6.85;3.17;;;;;;;;;;5077764;28;20475;-71
2021/08/13 10:04:37;;;;;;;8.90;2.72;;;;;;;;;;5080152;28;20028;-73
2021/08/13 10:07:04;;;;;;;5.07;2.25;;;;;;;;;;5082608;28;20415;-68
2021/08/13 10:09:30;;;;;;;11.55;2.83;;;;;;;;;;5081695;28;20016;-67
2021/08/13 10:12:00;;;;;;;7.35;3.47;;;;;;;;;;5082575;28;20028;-72
2021/08/13 10:14:33;;;;;;;4.85;2.17;;;;;;;;;;5082440;28;20046;-69
2021/08/13 10:17:16;;;;;;;9.02;2.90;;;;;;;;;;5082370;28;20383;-69
2021/08/13 10:19:43;;;;;;;8.30;2.83;;;;;;;;;;5082960;28;20025;-67
2021/08/13 10:22:09;;;;;;;10.13;2.92;;;;;;;;;;5082367;28;20034;-70
2021/08/13 10:24:36;;;;;;;8.35;2.72;;;;;;;;;;5083157;28;20016;-69
2021/08/13 10:27:04;;;;;;;10.70;3.30;;;;;;;;;;5084069;28;20047;-68
2021/08/13 10:29:30;;;;;;;5.63;2.75;;;;;;;;;;5084808;28;20025;-68
2021/08/13 10:32:00;;;;;;;7.63;2.95;;;;;;;;;;5083371;28;20017;-67
2021/08/13 10:34:26;;;;;;;6.30;2.60;;;;;;;;;;5064947;28;20166;-67
2021/08/13 10:36:54;;;;;;;8.45;2.83;;;;;;;;;;5082445;28;20024;-71
2021/08/13 10:39:22;;;;;;;9.73;2.65;;;;;;;;;;5081677;28;20059;-68
2021/08/13 10:41:50;;;;;;;5.90;2.38;;;;;;;;;;5081928;28;20017;-67
2021/08/13 10:44:18;;;;;;;7.13;2.70;;;;;;;;;;5082868;28;20495;-67
2021/08/13 10:46:45;;;;;;;10.32;2.70;;;;;;;;;;5082817;28;20032;-71
2021/08/13 10:49:13;;;;;;;6.40;2.42;;;;;;;;;;5083217;28;20025;-68
2021/08/13 10:51:39;;;;;;;5.85;2.50;;;;;;;;;;5083124;28;20021;-66
2021/08/13 10:54:19;;;;;;;7.28;2.50;;;;;;;;;;5081385;28;20039;-71
2021/08/13 10:56:48;;;;;;;4.43;2.20;;;;;;;;;;5078590;28;20097;-68
2021/08/13 10:59:14;;;;;;;6.55;2.55;;;;;;;;;;5076764;28;20077;-69
2021/08/13 11:01:59;;;;;;;6.85;2.60;;;;;;;;;;5075542;28;20033;-71
2021/08/13 11:04:38;;;;;;;6.28;2.33;;;;;;;;;;5076950;28;20044;-69
2021/08/13 11:07:08;;;;;;;6.32;2.45;;;;;;;;;;5077571;28;20487;-71
2021/08/13 11:09:35;;;;;;;5.93;2.25;;;;;;;;;;5075577;28;20043;-71
2021/08/13 11:12:02;;;;;;;6.97;3.03;;;;;;;;;;5076650;28;20502;-70
2021/08/13 11:14:30;;;;;;;9.15;2.80;;;;;;;;;;5076782;28;20625;-71
2021/08/13 11:16:56;;;;;;;7.68;2.30;;;;;;;;;;5077716;28;20043;-69
2021/08/13 11:19:23;;;;;;;8.02;2.22;;;;;;;;;;5076062;28;20027;-70
2021/08/13 11:21:51;;;;;;;4.88;2.50;;;;;;;;;;5076935;28;20124;-69
2021/08/13 11:24:22;;;;;;;7.32;2.50;;;;;;;;;;5076731;28;20024;-70
2021/08/13 11:26:51;;;;;;;6.20;2.17;;;;;;;;;;5077249;28;20024;-71
2021/08/13 11:32:00;;;;;;;8.38;2.47;;;;;;;;;;5077078;28;20058;-70
2021/08/13 11:34:43;;;;;;;4.93;2.03;;;;;;;;;;5076498;28;20070;-72
2021/08/13 11:37:09;;;;;;;10.52;2.72;;;;;;;;;;5075612;28;20020;-70
2021/08/13 11:39:39;;;;;;;8.57;2.40;;;;;;;;;;5075226;28;20386;-70
2021/08/13 11:42:07;;;;;;;4.97;2.53;;;;;;;;;;5073207;28;20016;-71
2021/08/13 11:44:34;;;;;;;7.55;2.70;;;;;;;;;;5073059;28;20025;-71
2021/08/13 11:47:00;;;;;;;5.68;2.22;;;;;;;;;;5073022;28;20092;-72
2021/08/13 11:49:26;;;;;;;7.78;3.35;;;;;;;;;;5074965;28;20368;-70
2021/08/13 11:51:52;;;;;;;10.13;2.63;;;;;;;;;;5074656;28;20032;-72
2021/08/13 11:54:29;;;;;;;8.32;2.83;;;;;;;;;;5073914;28;20017;-74
2021/08/13 11:57:11;;;;;;;6.63;3.10;;;;;;;;;;5072346;28;20074;-73
2021/08/13 11:59:37;;;;;;;7.50;2.70;;;;;;;;;;5073925;28;20025;-72
2021/08/13 12:02:03;;;;;;;8.20;2.70;;;;;;;;;;5074301;28;20020;-70
2021/08/13 12:04:30;;;;;;;4.95;2.75;;;;;;;;;;5073811;28;20150;-70
2021/08/13 12:06:58;;;;;;;7.22;3.05;;;;;;;;;;5073074;28;20025;-72
2021/08/13 12:09:32;;;;;;;9.20;2.80;;;;;;;;;;5073446;28;20076;-73
2021/08/13 12:11:58;;;;;;;7.07;4.53;;;;;;;;;;5074299;28;20034;-72
2021/08/13 12:14:24;;;;;;;7.22;2.40;;;;;;;;;;5078282;28;20729;-70
2021/08/13 12:16:54;;;;;;;9.65;4.15;;;;;;;;;;5076417;28;20025;-69
2021/08/13 12:19:21;;;;;;;8.45;2.92;;;;;;;;;;5075757;28;20028;-71
2021/08/13 12:22:00;;;;;;;6.47;2.63;;;;;;;;;;5076167;28;20426;-71
2021/08/13 12:24:32;;;;;;;8.35;3.80;;;;;;;;;;5079853;28;20055;-72
2021/08/13 12:26:59;;;;;;;6.88;3.03;;;;;;;;;;5078500;28;20107;-73
2021/08/13 12:29:26;;;;;;;6.70;2.85;;;;;;;;;;5076729;28;20028;-73
2021/08/13 12:31:54;;;;;;;10.00;2.80;;;;;;;;;;5077321;28;20036;-72
2021/08/13 12:34:20;;;;;;;9.18;2.50;;;;;;;;;;5077636;28;20052;-71
2021/08/13 12:36:47;;;;;;;5.20;2.50;;;;;;;;;;5075352;28;20021;-72
2021/08/13 12:39:21;;;;;;;10.32;4.38;;;;;;;;;;5075912;28;20020;-72
2021/08/13 12:41:47;;;;;;;5.77;2.30;;;;;;;;;;5075687;28;20021;-71
2021/08/13 12:44:13;;;;;;;7.95;2.63;;;;;;;;;;5076610;28;20614;-71
2021/08/13 12:46:39;;;;;;;11.95;2.70;;;;;;;;;;5076720;28;20025;-71
2021/08/13 12:49:06;;;;;;;5.93;2.75;;;;;;;;;;5075874;28;20617;-71
2021/08/13 12:51:32;;;;;;;6.18;2.53;;;;;;;;;;5076231;28;20038;-71
2021/08/13 12:53:59;;;;;;;8.55;3.00;;;;;;;;;;5076303;28;20039;-71
2021/08/13 12:56:25;;;;;;;6.47;3.65;;;;;;;;;;5076384;28;20096;-71
2021/08/13 12:58:51;;;;;;;6.22;2.40;;;;;;;;;;5075622;28;20383;-71
2021/08/13 13:01:27;;;;;;;9.27;2.42;;;;;;;;;;5075234;28;20391;-72
2021/08/13 13:04:06;;;;;;;6.30;2.78;;;;;;;;;;5075172;28;20071;-70
2021/08/13 13:06:32;;;;;;;10.68;2.92;;;;;;;;;;5077920;28;20505;-70
2021/08/13 13:08:58;;;;;;;6.78;2.45;;;;;;;;;;5076637;28;20474;-72
2021/08/13 13:11:28;;;;;;;7.38;2.58;;;;;;;;;;5075008;28;20043;-72
2021/08/13 13:13:55;;;;;;;7.40;2.90;;;;;;;;;;5075537;28;20111;-70
2021/08/13 13:16:22;;;;;;;4.55;2.38;;;;;;;;;;5077117;28;20020;-70
2021/08/13 13:18:48;;;;;;;4.07;2.50;;;;;;;;;;5078509;28;20445;-71
2021/08/13 13:21:25;;;;;;;10.48;3.80;;;;;;;;;;5075956;28;20044;-71
2021/08/13 13:23:52;;;;;;;7.07;2.58;;;;;;;;;;5077499;28;20025;-73
2021/08/13 13:26:18;;;;;;;5.07;2.33;;;;;;;;;;5077498;28;20036;-71
2021/08/13 13:28:44;;;;;;;6.88;3.33;;;;;;;;;;5076746;28;20031;-69
2021/08/13 13:31:19;;;;;;;13.00;2.72;;;;;;;;;;5076121;28;20028;-72
2021/08/13 13:33:45;;;;;;;6.25;2.33;;;;;;;;;;5075331;28;20073;-71
2021/08/13 13:36:11;;;;;;;8.70;2.78;;;;;;;;;;5074141;28;20017;-71
2021/08/13 13:38:39;;;;;;;5.97;2.28;;;;;;;;;;5075214;28;20024;-71
2021/08/13 13:41:05;;;;;;;9.40;2.53;;;;;;;;;;5076349;28;20368;-70
2021/08/13 13:43:32;;;;;;;5.72;2.60;;;;;;;;;;5074640;28;20078;-70
2021/08/13 13:46:00;;;;;;;5.47;2.42;;;;;;;;;;5077484;28;20025;-68
2021/08/13 13:48:26;;;;;;;5.40;2.60;;;;;;;;;;5077755;28;20025;-69
2021/08/13 13:50:53;;;;;;;6.70;2.45;;;;;;;;;;5076781;28;20495;-72
2021/08/13 13:53:22;;;;;;;9.20;2.58;;;;;;;;;;5077483;28;20032;-72
2021/08/13 13:55:48;;;;;;;5.07;2.80;;;;;;;;;;5075545;28;20174;-72
2021/08/13 13:58:15;;;;;;;9.02;2.70;;;;;;;;;;5075030;28;20029;-71
2021/08/13 14:00:41;;;;;;;10.60;2.67;;;;;;;;;;5075366;28;20029;-71
2021/08/13 14:03:10;;;;;;;6.63;2.83;;;;;;;;;;5079107;28;20045;-71
2021/08/13 14:05:36;;;;;;;6.88;3.22;;;;;;;;;;5079210;28;20115;-73
2021/08/13 14:08:05;;;;;;;5.43;2.55;;;;;;;;;;5079022;28;20025;-73
2021/08/13 14:10:32;;;;;;;5.95;2.42;;;;;;;;;;5078136;28;20119;-71
2021/08/13 14:13:04;;;;;;;10.85;2.63;;;;;;;;;;5076525;28;20029;-71
2021/08/13 14:15:32;;;;;;;6.38;2.28;;;;;;;;;;5075515;28;20111;-74
2021/08/13 14:17:58;;;;;;;7.70;3.65;;;;;;;;;;5075156;28;20024;-70
2021/08/13 14:20:24;;;;;;;7.95;2.58;;;;;;;;;;5075138;28;20028;-70
2021/08/13 14:22:51;;;;;;;5.60;2.55;;;;;;;;;;5075161;28;20052;-71
2021/08/13 14:25:19;;;;;;;8.20;2.40;;;;;;;;;;5075490;28;20425;-71
2021/08/13 14:27:45;;;;;;;7.32;2.95;;;;;;;;;;5073794;28;20097;-71
2021/08/13 14:30:12;;;;;;;9.50;3.30;;;;;;;;;;5074269;28;20632;-71
2021/08/13 14:32:38;;;;;;;4.13;2.20;;;;;;;;;;5074726;28;20395;-72
2021/08/13 14:35:05;;;;;;;7.05;2.85;;;;;;;;;;5074704;28;20503;-72
2021/08/13 14:37:31;;;;;;;5.97;2.40;;;;;;;;;;5073769;28;20421;-71
2021/08/13 14:39:57;;;;;;;4.13;2.30;;;;;;;;;;5073850;28;20021;-71
2021/08/13 14:42:23;;;;;;;5.07;2.22;;;;;;;;;;5075315;28;20020;-71